Weather History for Omaha Offutt, NE

Change the Weather History Date:

Monday, March 25, 2013

  Actual Average Record
Temperature  
Mean Temperature 27 °F -  
Max Temperature 30 °F 53 °F 81 °F (2012)
Min Temperature 24 °F 32 °F 19 °F (2001)
Degree Days  
Heating Degree Days 38    
Moisture  
Dew Point 23 °F    
Average Humidity 81    
Maximum Humidity 100    
Minimum Humidity 64    
Precipitation  
Precipitation 0.00 in - - ()
Sea Level Pressure  
Sea Level Pressure 30.25 in    
Wind  
Wind Speed 13 mph (NW)    
Max Wind Speed 18 mph    
Max Gust Speed 25 mph    
Visibility 8 miles    
Events Snow    
Averages and records for this station are not official NWS values.
T = Trace of Precipitation, MM = Missing Value Source: NWS Daily Summary

Daily Weather History Graph

Daily Weather History Graph

Search for Another Location

Airport:

Trip Planner

Search our weather history database for the weather conditions in past years. The results will help you decide how hot, cold, wet, or windy it might be!

Date:

Astronomy

Mar. 25, 2013 Rise Set
Actual Time 7:18 AM CDT 7:41 PM CDT
Civil Twilight 6:50 AM CDT 8:09 PM CDT
Nautical Twilight 6:18 AM CDT 8:41 PM CDT
Astronomical Twilight 5:45 AM CDT 9:14 PM CDT
Moon 6:13 PM CDT (3/25) 6:02 AM CDT (3/25)
Length of Visible Light 13h 18m
Length of Day
12h 23m
Waxing Gibbous, 96% of the Moon is Illuminated
Mar 25
Waxing Gibbous
Mar 27
Full
Apr 2
Last Quarter
Apr 10
New
Apr 18
First Quarter

Hourly Weather History & Observations

Time (CDT) Temp. Windchill Dew Point Humidity Pressure Visibility Wind Dir Wind Speed Gust Speed Precip Events Conditions
12:55 AM 26.6 °F 15.7 °F 25.3 °F 95% 30.12 in 7.0 mi NW 12.7 mph - 0.00 in Snow Light Snow
1:35 AM 26.6 °F 18.2 °F 26.6 °F 100% 30.11 in 7.0 mi NW 8.1 mph - N/A Snow Light Snow
1:41 AM 26.6 °F 17.5 °F 26.6 °F 100% 30.11 in 5.0 mi NW 9.2 mph - N/A Snow Light Snow
1:55 AM 27.0 °F 18.0 °F 26.4 °F 98% 30.11 in 4.0 mi NW 9.2 mph - 0.00 in Snow Light Snow
2:05 AM 26.6 °F 16.8 °F 26.6 °F 100% 30.11 in 4.0 mi NW 10.4 mph - N/A Snow Light Snow
2:12 AM 26.6 °F 17.5 °F 26.6 °F 100% 30.11 in 3.0 mi NW 9.2 mph - N/A Snow Light Snow
2:55 AM 27.7 °F 17.1 °F 27.1 °F 98% 30.12 in 4.0 mi NW 12.7 mph - 0.00 in Snow Light Snow
3:55 AM 26.8 °F 14.5 °F 25.3 °F 94% 30.12 in 4.0 mi NNW 16.1 mph 21.9 mph 0.00 in Snow Light Snow
4:55 AM 26.2 °F 14.2 °F 24.3 °F 92% 30.14 in 5.0 mi NW 15.0 mph 21.9 mph 0.00 in Snow Light Snow
5:10 AM 26.6 °F 13.4 °F 23.0 °F 86% 30.15 in 7.0 mi NW 18.4 mph 24.2 mph N/A Snow Light Snow
5:30 AM 26.6 °F 14.7 °F 23.0 °F 86% 30.15 in 5.0 mi NW 15.0 mph 23.0 mph N/A Snow Light Snow
5:55 AM 25.7 °F 13.5 °F 22.8 °F 89% 30.16 in 6.0 mi NW 15.0 mph 25.3 mph 0.00 in Snow Light Snow
6:15 AM 24.8 °F 12.4 °F 23.0 °F 93% 30.16 in 4.0 mi NW 15.0 mph - N/A Snow Light Snow
6:33 AM 24.8 °F 11.5 °F 23.0 °F 93% 30.17 in 9.0 mi NNW 17.3 mph 24.2 mph N/A Snow Blowing Snow
6:35 AM 24.8 °F 12.4 °F 21.2 °F 86% 30.17 in 10.0 mi NW 15.0 mph 24.2 mph N/A   Mostly Cloudy
6:55 AM 25.5 °F 12.9 °F 20.5 °F 81% 30.17 in 10.0 mi NW 16.1 mph 24.2 mph 0.00 in   Mostly Cloudy
7:55 AM 25.0 °F 12.2 °F 21.9 °F 88% 30.19 in 10.0 mi NW 16.1 mph 24.2 mph N/A   Mostly Cloudy
8:11 AM 24.8 °F 11.9 °F 23.0 °F 93% 30.20 in 9.0 mi NW 16.1 mph 25.3 mph N/A   Mostly Cloudy
8:19 AM 24.8 °F 11.9 °F 23.0 °F 93% 30.20 in 6.0 mi NW 16.1 mph - N/A Snow Blowing Snow
8:55 AM 25.3 °F 12.2 °F 22.5 °F 89% 30.21 in 6.0 mi NW 17.3 mph - 0.00 in Snow Light Snow
9:15 AM 26.6 °F 14.7 °F 23.0 °F 86% 30.22 in 6.0 mi NW 15.0 mph - N/A Snow Blowing Snow
9:24 AM 26.6 °F 15.2 °F 23.0 °F 86% 30.22 in 5.0 mi NW 13.8 mph 24.2 mph N/A Snow Light Snow
9:55 AM 26.2 °F 14.7 °F 23.5 °F 90% 30.23 in 4.0 mi NW 13.8 mph - 0.00 in Snow Light Snow
10:06 AM 26.6 °F 15.7 °F 23.0 °F 86% 30.23 in 3.0 mi NW 12.7 mph - N/A Snow Light Snow
10:23 AM 26.6 °F 14.7 °F 23.0 °F 86% 30.24 in 3.0 mi NW 15.0 mph - N/A Snow Light Snow
10:55 AM 27.0 °F 15.6 °F 23.9 °F 88% 30.25 in 3.0 mi NW 13.8 mph - 0.00 in Snow Light Snow
11:09 AM 26.6 °F 15.7 °F 24.8 °F 93% 30.25 in 1.5 mi NNW 12.7 mph - N/A Snow Light Snow
11:48 AM 28.4 °F 17.5 °F 24.8 °F 86% 30.26 in 3.0 mi NNW 13.8 mph - N/A Snow Light Snow
11:55 AM 28.0 °F 16.1 °F 24.6 °F 87% 30.26 in 3.0 mi NW 16.1 mph 20.7 mph 0.00 in Snow Light Snow
12:24 PM 28.4 °F 17.5 °F 24.8 °F 86% 30.27 in 8.0 mi NNW 13.8 mph - N/A Snow Light Snow
12:31 PM 28.4 °F 16.6 °F 23.0 °F 80% 30.27 in 10.0 mi NNW 16.1 mph - N/A   Overcast
12:55 PM 29.3 °F 18.2 °F 23.2 °F 78% 30.27 in 10.0 mi NW 15.0 mph 19.6 mph 0.00 in   Overcast
1:10 PM 30.2 °F 21.3 °F 23.0 °F 75% 30.27 in 10.0 mi NW 10.4 mph 19.6 mph N/A   Overcast
1:20 PM 30.2 °F 18.9 °F 23.0 °F 75% 30.27 in 10.0 mi NW 16.1 mph - N/A Snow Light Snow
1:54 PM 30.2 °F 20.8 °F 23.0 °F 75% 30.27 in 10.0 mi NNW 11.5 mph 18.4 mph N/A   Overcast
2:09 PM 30.2 °F 20.8 °F 23.0 °F 75% 30.27 in 10.0 mi NNW 11.5 mph - N/A   Overcast
2:11 PM 30.2 °F 21.3 °F 23.0 °F 75% 30.27 in 10.0 mi NNW 10.4 mph - N/A Snow Light Snow
2:21 PM 30.2 °F 21.9 °F 23.0 °F 75% 30.27 in 10.0 mi NW 9.2 mph 20.7 mph N/A   Overcast
2:23 PM 30.2 °F 21.3 °F 23.0 °F 75% 30.27 in 10.0 mi NW 10.4 mph - N/A Snow Light Snow
2:36 PM 30.2 °F 20.2 °F 23.0 °F 75% 30.27 in 10.0 mi NNW 12.7 mph - N/A   Overcast
2:55 PM 30.2 °F 19.3 °F 21.9 °F 71% 30.28 in 10.0 mi NW 15.0 mph - 0.00 in Snow Light Snow
3:05 PM 30.2 °F 19.3 °F 23.0 °F 75% 30.28 in 10.0 mi NNW 15.0 mph 20.7 mph N/A   Overcast
3:26 PM 30.2 °F 19.3 °F 23.0 °F 75% 30.27 in 10.0 mi NW 15.0 mph - N/A   Overcast
3:35 PM 30.2 °F 19.8 °F 21.2 °F 69% 30.28 in 10.0 mi NNW 13.8 mph - N/A   Overcast
3:42 PM 30.2 °F 20.2 °F 21.2 °F 69% 30.28 in 10.0 mi NW 12.7 mph - N/A   Overcast
3:55 PM 30.4 °F 20.5 °F 21.9 °F 71% 30.28 in 10.0 mi NNW 12.7 mph - 0.00 in   Overcast
4:06 PM 30.2 °F 18.5 °F 19.4 °F 64% 30.28 in 10.0 mi NW 17.3 mph - N/A   Overcast
4:20 PM 30.2 °F 19.8 °F 19.4 °F 64% 30.28 in 10.0 mi NNW 13.8 mph 24.2 mph N/A   Overcast
4:55 PM 30.2 °F 20.2 °F 20.5 °F 67% 30.29 in 10.0 mi NNW 12.7 mph 20.7 mph 0.00 in   Overcast
5:05 PM 30.2 °F 19.3 °F 21.2 °F 69% 30.29 in 10.0 mi NNW 15.0 mph - N/A   Overcast
5:09 PM 30.2 °F 20.8 °F 21.2 °F 69% 30.30 in 10.0 mi NW 11.5 mph - N/A   Mostly Cloudy
5:18 PM 30.2 °F 19.3 °F 21.2 °F 69% 30.30 in 10.0 mi NNW 15.0 mph - N/A   Mostly Cloudy
5:31 PM 30.2 °F 18.9 °F 21.2 °F 69% 30.30 in 10.0 mi NW 16.1 mph - N/A   Overcast
5:55 PM 30.0 °F 19.5 °F 21.4 °F 70% 30.30 in 10.0 mi NW 13.8 mph - 0.00 in   Overcast
6:19 PM 30.2 °F 19.3 °F 21.2 °F 69% 30.31 in 10.0 mi NW 15.0 mph 21.9 mph N/A   Overcast
6:29 PM 30.2 °F 21.9 °F 21.2 °F 69% 30.32 in 10.0 mi NW 9.2 mph - N/A   Overcast
6:36 PM 30.2 °F 20.2 °F 21.2 °F 69% 30.32 in 10.0 mi NW 12.7 mph - N/A   Overcast
6:53 PM 30.2 °F 21.9 °F 21.2 °F 69% 30.32 in 10.0 mi NW 9.2 mph - N/A   Mostly Cloudy
6:55 PM 29.7 °F 20.1 °F 20.5 °F 69% 30.32 in 10.0 mi NNW 11.5 mph - 0.00 in   Mostly Cloudy
7:20 PM 30.2 °F 20.2 °F 21.2 °F 69% 30.33 in 10.0 mi NW 12.7 mph - N/A   Overcast
7:23 PM 30.2 °F 20.2 °F 21.2 °F 69% 30.33 in 10.0 mi NW 12.7 mph - N/A   Overcast
7:55 PM 29.1 °F 20.0 °F 21.6 °F 73% 30.34 in 10.0 mi NW 10.4 mph - N/A   Overcast
8:55 PM 28.0 °F 18.1 °F 21.7 °F 77% 30.35 in 10.0 mi NW 11.5 mph - N/A   Mostly Cloudy
9:55 PM 26.8 °F 17.1 °F 21.4 °F 80% 30.36 in 10.0 mi NW 10.4 mph - N/A   Clear
10:55 PM 27.0 °F 17.3 °F 20.5 °F 77% 30.38 in 10.0 mi NW 10.4 mph - N/A   Mostly Cloudy
11:55 PM 25.5 °F 17.8 °F 19.9 °F 79% 30.38 in 10.0 mi NW 6.9 mph - N/A   Overcast